Time;durP1;ratioP1;P1;durP2;ratioP2;P2;SDS_P1;SDS_P2;PMS_P1;PMS_P2;Temp;Humidity;BMP_temperature;BMP_pressure;BME280_temperature;BME280_humidity;BME280_pressure;Samples;Min_cycle;Max_cycle;Signal;HPM_P1;HPM_P2
2021/05/25 00:01:20;;;;;;;2.95;1.40;;;23.10;46.70;;;;;;5064384;28;20060;-55
2021/05/25 00:03:46;;;;;;;2.47;1.40;;;23.10;46.70;;;;;;5047815;28;20037;-56
2021/05/25 00:06:12;;;;;;;2.67;1.48;;;23.10;46.70;;;;;;5061259;28;20032;-56
2021/05/25 00:08:37;;;;;;;2.58;1.50;;;23.10;46.70;;;;;;5061304;28;20617;-57
2021/05/25 00:11:03;;;;;;;2.88;1.63;;;23.10;46.70;;;;;;5052794;28;20118;-54
2021/05/25 00:13:28;;;;;;;2.15;1.50;;;23.10;46.70;;;;;;5068990;28;20715;-60
2021/05/25 00:15:54;;;;;;;2.22;1.45;;;23.10;46.70;;;;;;5068489;28;20362;-61
2021/05/25 00:18:21;;;;;;;2.25;1.45;;;23.10;46.70;;;;;;5063102;28;20028;-55
2021/05/25 00:20:48;;;;;;;2.95;1.65;;;23.10;46.80;;;;;;5059389;28;20471;-55
2021/05/25 00:23:14;;;;;;;2.50;1.50;;;23.10;46.70;;;;;;5062828;28;20043;-55
2021/05/25 00:25:40;;;;;;;2.92;1.70;;;23.00;46.70;;;;;;5050256;28;20036;-56
2021/05/25 00:28:05;;;;;;;2.25;1.45;;;23.00;46.70;;;;;;5067715;28;20032;-58
2021/05/25 00:30:31;;;;;;;2.10;1.50;;;23.00;46.70;;;;;;5065791;28;20114;-55
2021/05/25 00:32:57;;;;;;;2.33;1.50;;;23.00;46.70;;;;;;5067921;28;20025;-56
2021/05/25 00:35:22;;;;;;;2.35;1.52;;;23.00;46.70;;;;;;5062283;28;20103;-56
2021/05/25 00:37:48;;;;;;;2.40;1.60;;;23.00;46.70;;;;;;5068368;28;20232;-57
2021/05/25 00:40:14;;;;;;;2.53;1.70;;;23.00;46.70;;;;;;5067889;28;20052;-58
2021/05/25 00:42:43;;;;;;;3.30;1.52;;;23.00;46.70;;;;;;5063531;28;20028;-54
2021/05/25 00:45:09;;;;;;;3.92;1.70;;;23.00;46.70;;;;;;5066738;28;20188;-59
2021/05/25 00:47:36;;;;;;;2.08;1.40;;;23.00;46.70;;;;;;5047979;28;20033;-55
2021/05/25 00:50:12;;;;;;;2.58;1.50;;;23.00;46.70;;;;;;5048573;28;20464;-59
2021/05/25 00:52:46;;;;;;;4.05;1.83;;;22.90;46.70;;;;;;5054598;28;20029;-58
2021/05/25 00:55:19;;;;;;;2.42;1.48;;;23.00;46.70;;;;;;5059741;28;20025;-60
2021/05/25 00:57:46;;;;;;;2.55;1.63;;;23.00;46.70;;;;;;5067641;28;20021;-55
2021/05/25 01:00:13;;;;;;;2.65;1.80;;;22.90;46.70;;;;;;5067188;28;20028;-53
2021/05/25 01:02:39;;;;;;;2.60;1.60;;;22.90;46.70;;;;;;5052392;28;20548;-59
2021/05/25 01:05:06;;;;;;;2.42;1.58;;;22.90;46.70;;;;;;5066598;28;20037;-57
2021/05/25 01:07:31;;;;;;;2.40;1.60;;;22.90;46.70;;;;;;5067113;28;20355;-57
2021/05/25 01:09:59;;;;;;;2.55;1.88;;;22.90;46.70;;;;;;5065972;28;20021;-52
2021/05/25 01:12:27;;;;;;;2.10;1.42;;;22.90;46.70;;;;;;5046892;28;20162;-57
2021/05/25 01:14:57;;;;;;;2.88;1.70;;;22.90;46.70;;;;;;5065915;28;20066;-57
2021/05/25 01:17:23;;;;;;;2.85;1.75;;;22.80;46.70;;;;;;5067082;28;20469;-55
2021/05/25 01:19:48;;;;;;;2.83;1.75;;;22.80;46.60;;;;;;5052239;28;20121;-54
2021/05/25 01:22:14;;;;;;;2.38;1.67;;;22.80;46.70;;;;;;5066620;28;20124;-53
2021/05/25 01:24:40;;;;;;;2.53;1.70;;;22.80;46.60;;;;;;5060570;28;20369;-56
2021/05/25 01:27:07;;;;;;;2.92;1.70;;;22.80;46.60;;;;;;5048537;28;20110;-54
2021/05/25 01:29:36;;;;;;;2.10;1.45;;;22.80;46.70;;;;;;5047859;28;20115;-59
2021/05/25 01:32:02;;;;;;;;;;;22.80;46.70;;;;;;5062456;28;20490;-55
2021/05/25 01:34:28;;;;;;;2.38;1.60;;;22.80;46.70;;;;;;5047632;28;19912;-56
2021/05/25 01:36:54;;;;;;;2.67;1.77;;;22.80;46.70;;;;;;5056918;28;20044;-57
2021/05/25 01:39:20;;;;;;;3.05;1.70;;;22.80;46.70;;;;;;5067355;28;20031;-54
2021/05/25 01:41:45;;;;;;;2.28;1.42;;;22.80;46.70;;;;;;5056269;28;20106;-56
2021/05/25 01:44:11;;;;;;;2.60;1.80;;;22.80;46.70;;;;;;5047489;28;20033;-53
2021/05/25 01:46:46;;;;;;;3.90;1.90;;;22.80;46.70;;;;;;5058732;28;20519;-54
2021/05/25 01:49:16;;;;;;;2.45;1.70;;;22.80;46.70;;;;;;5066565;28;20061;-58
2021/05/25 01:51:50;;;;;;;3.42;1.77;;;22.70;46.60;;;;;;5059926;28;20699;-56
2021/05/25 01:54:17;;;;;;;2.17;1.70;;;22.70;46.60;;;;;;5064007;28;20104;-55
2021/05/25 01:56:43;;;;;;;2.35;1.70;;;22.70;46.60;;;;;;5063905;28;20437;-55
2021/05/25 01:59:09;;;;;;;2.65;1.70;;;22.70;46.70;;;;;;5053906;28;20483;-57
2021/05/25 02:01:35;;;;;;;2.65;1.67;;;22.70;46.70;;;;;;5054033;28;20070;-53
2021/05/25 02:04:01;;;;;;;2.17;1.60;;;22.70;46.70;;;;;;5055297;28;20074;-56
2021/05/25 02:06:27;;;;;;;2.42;1.55;;;22.70;46.70;;;;;;5064967;28;20025;-58
2021/05/25 02:08:54;;;;;;;1.98;1.58;;;22.70;46.70;;;;;;5062680;28;20440;-55
2021/05/25 02:11:19;;;;;;;2.28;1.60;;;22.70;46.70;;;;;;5065004;28;20450;-52
2021/05/25 02:13:45;;;;;;;2.97;1.85;;;22.70;46.70;;;;;;5050226;28;20048;-55
2021/05/25 02:16:13;;;;;;;2.72;1.60;;;22.70;46.70;;;;;;5045401;28;20033;-56
2021/05/25 02:18:42;;;;;;;2.83;1.60;;;22.70;46.70;;;;;;5056820;28;20116;-58
2021/05/25 02:21:09;;;;;;;2.47;1.70;;;22.70;46.70;;;;;;5047263;28;20117;-53
2021/05/25 02:23:35;;;;;;;2.70;1.70;;;22.60;46.60;;;;;;5061148;28;20379;-56
2021/05/25 02:26:01;;;;;;;2.70;1.73;;;22.60;46.60;;;;;;5051492;28;20025;-55
2021/05/25 02:28:26;;;;;;;2.75;1.60;;;22.60;46.60;;;;;;5066499;28;20081;-55
2021/05/25 02:30:52;;;;;;;2.85;1.75;;;22.60;46.70;;;;;;5068107;28;20127;-55
2021/05/25 02:33:20;;;;;;;2.20;1.70;;;22.60;46.70;;;;;;5067178;28;20029;-54
2021/05/25 02:35:49;;;;;;;2.35;1.75;;;22.60;46.60;;;;;;5057934;28;20126;-53
2021/05/25 02:38:15;;;;;;;2.60;1.60;;;22.60;46.60;;;;;;5067174;28;20025;-52
2021/05/25 02:40:43;;;;;;;2.47;1.80;;;22.60;46.60;;;;;;5068932;28;20043;-52
2021/05/25 02:43:09;;;;;;;2.20;1.67;;;22.60;46.60;;;;;;5050856;28;20036;-58
2021/05/25 02:45:35;;;;;;;2.55;1.42;;;22.60;46.60;;;;;;5050975;28;20124;-59
2021/05/25 02:48:01;;;;;;;2.08;1.50;;;22.60;46.60;;;;;;5050099;28;20405;-53
2021/05/25 02:50:27;;;;;;;2.65;1.50;;;22.60;46.60;;;;;;5051042;28;20487;-56
2021/05/25 02:52:54;;;;;;;1.75;1.40;;;22.60;46.60;;;;;;5065904;28;20016;-54
2021/05/25 02:55:40;;;;;;;2.63;1.85;;;22.50;46.60;;;;;;5066923;28;20029;-51
2021/05/25 02:58:07;;;;;;;2.15;1.50;;;22.60;46.70;;;;;;5068402;28;20063;-54
2021/05/25 03:00:44;;;;;;;2.55;1.70;;;22.50;46.60;;;;;;5066966;28;20032;-53
2021/05/25 03:03:11;;;;;;;2.40;1.60;;;22.50;46.60;;;;;;5049248;28;20459;-57
2021/05/25 03:05:37;;;;;;;1.98;1.50;;;22.50;46.60;;;;;;5060565;28;20024;-53
2021/05/25 03:08:04;;;;;;;3.50;1.70;;;22.50;47.10;;;;;;5055993;28;20298;-54
2021/05/25 03:10:33;;;;;;;2.55;1.77;;;22.50;46.60;;;;;;5059463;28;20095;-56
2021/05/25 03:13:00;;;;;;;2.42;1.70;;;22.50;46.90;;;;;;5059867;28;20785;-56
2021/05/25 03:15:35;;;;;;;2.13;1.30;;;22.50;46.60;;;;;;5062238;28;20103;-52
2021/05/25 03:18:02;;;;;;;2.42;1.70;;;22.50;46.60;;;;;;5050963;28;20123;-51
2021/05/25 03:20:28;;;;;;;2.78;1.70;;;22.50;46.60;;;;;;5049685;28;20040;-58
2021/05/25 03:22:55;;;;;;;2.47;1.73;;;22.40;46.60;;;;;;5063226;28;20046;-55
2021/05/25 03:25:20;;;;;;;1.90;1.40;;;22.40;46.60;;;;;;5069432;28;20089;-53
2021/05/25 03:27:47;;;;;;;2.10;1.60;;;22.40;46.60;;;;;;5068701;28;20742;-54
2021/05/25 03:30:16;;;;;;;2.50;1.75;;;22.50;46.60;;;;;;5069123;28;20077;-59
2021/05/25 03:32:42;;;;;;;2.15;1.50;;;22.50;46.60;;;;;;5068677;28;20024;-56
2021/05/25 03:35:09;;;;;;;2.00;1.52;;;22.40;46.60;;;;;;5069791;28;20062;-54
2021/05/25 03:37:37;;;;;;;2.08;1.40;;;22.40;46.60;;;;;;5061089;28;20143;-53
2021/05/25 03:40:05;;;;;;;2.67;1.80;;;22.40;46.60;;;;;;5049015;28;20036;-58
2021/05/25 03:42:30;;;;;;;2.05;1.63;;;22.40;46.60;;;;;;5049739;28;20495;-55
2021/05/25 03:44:57;;;;;;;2.03;1.50;;;22.40;46.60;;;;;;5053036;28;20032;-57
2021/05/25 03:47:24;;;;;;;1.80;1.40;;;22.40;46.60;;;;;;5058149;28;20032;-57
2021/05/25 03:49:51;;;;;;;2.25;1.58;;;22.40;46.60;;;;;;5057366;28;20534;-54
2021/05/25 03:52:16;;;;;;;1.90;1.40;;;22.40;46.60;;;;;;5068437;28;20111;-55
2021/05/25 03:54:55;;;;;;;2.58;1.58;;;22.40;46.60;;;;;;5068666;28;20115;-56
2021/05/25 03:59:52;;;;;;;2.30;1.63;;;22.40;46.60;;;;;;5049879;28;20535;-55
2021/05/25 04:02:18;;;;;;;2.40;1.80;;;22.30;46.50;;;;;;5056096;28;20111;-57
2021/05/25 04:04:44;;;;;;;2.15;1.60;;;22.40;46.60;;;;;;5068686;28;20032;-55
2021/05/25 04:07:09;;;;;;;2.30;1.60;;;22.30;46.50;;;;;;5062660;28;20044;-56
2021/05/25 04:09:35;;;;;;;2.33;1.60;;;22.30;46.50;;;;;;5065125;28;20020;-53
2021/05/25 04:12:00;;;;;;;2.42;1.58;;;22.30;46.50;;;;;;5056359;28;20040;-57
2021/05/25 04:14:26;;;;;;;1.90;1.55;;;22.30;46.50;;;;;;5049335;28;20040;-54
2021/05/25 04:16:52;;;;;;;2.30;1.58;;;22.30;46.50;;;;;;5066367;28;20379;-55
2021/05/25 04:19:18;;;;;;;2.38;1.70;;;22.30;46.50;;;;;;5068578;28;20511;-58
2021/05/25 04:21:44;;;;;;;2.15;1.63;;;22.30;46.50;;;;;;5065885;28;20104;-55
2021/05/25 04:24:09;;;;;;;3.03;1.77;;;22.30;46.50;;;;;;5048368;28;20136;-58
2021/05/25 04:26:35;;;;;;;2.40;1.70;;;22.30;46.50;;;;;;5053485;28;20048;-57
2021/05/25 04:29:00;;;;;;;2.40;1.75;;;22.30;46.50;;;;;;5066234;28;20057;-55
2021/05/25 04:31:26;;;;;;;2.08;1.52;;;22.30;46.50;;;;;;5068001;28;20038;-58
2021/05/25 04:33:52;;;;;;;2.08;1.60;;;22.30;46.50;;;;;;5065933;28;20399;-58
2021/05/25 04:36:18;;;;;;;2.35;1.60;;;22.30;46.50;;;;;;5049761;28;20033;-54
2021/05/25 04:38:44;;;;;;;2.00;1.50;;;22.30;46.50;;;;;;5063418;28;20037;-59
2021/05/25 04:41:10;;;;;;;2.15;1.70;;;22.30;46.50;;;;;;5063465;28;20036;-57
2021/05/25 04:43:35;;;;;;;1.67;1.40;;;22.20;46.50;;;;;;5065408;28;20029;-54
2021/05/25 04:46:01;;;;;;;1.88;1.50;;;22.30;46.50;;;;;;5057555;28;20048;-53
2021/05/25 04:48:27;;;;;;;2.25;1.60;;;22.20;46.50;;;;;;5054613;28;20047;-55
2021/05/25 04:50:52;;;;;;;2.10;1.50;;;22.30;46.50;;;;;;5048359;28;20118;-58
2021/05/25 04:53:18;;;;;;;2.50;1.70;;;22.20;46.50;;;;;;5064801;28;20040;-59
2021/05/25 04:55:45;;;;;;;2.30;1.60;;;22.20;46.50;;;;;;5067922;28;20054;-58
2021/05/25 04:58:11;;;;;;;1.85;1.40;;;22.20;46.50;;;;;;5065450;28;20113;-53
2021/05/25 05:00:37;;;;;;;2.28;1.50;;;22.20;46.50;;;;;;5049213;28;20036;-57
2021/05/25 05:03:03;;;;;;;2.03;1.52;;;22.20;46.50;;;;;;5060932;28;20029;-52
2021/05/25 05:05:28;;;;;;;2.38;1.70;;;22.20;46.50;;;;;;5067847;28;20078;-59
2021/05/25 05:07:54;;;;;;;2.50;1.60;;;22.20;46.50;;;;;;5065732;28;20111;-54
2021/05/25 05:10:20;;;;;;;2.80;1.48;;;22.20;46.50;;;;;;5054155;28;20074;-59
2021/05/25 05:12:46;;;;;;;1.55;1.35;;;22.20;46.40;;;;;;5060492;28;20031;-53
2021/05/25 05:15:13;;;;;;;1.85;1.33;;;22.20;46.40;;;;;;5050736;28;20033;-53
2021/05/25 05:17:40;;;;;;;2.72;1.60;;;22.20;46.40;;;;;;5055838;28;20348;-55
2021/05/25 05:20:07;;;;;;;1.98;1.58;;;22.20;46.40;;;;;;5079235;28;20108;-51
2021/05/25 05:22:34;;;;;;;1.83;1.42;;;22.20;46.40;;;;;;5058846;28;20060;-53
2021/05/25 05:25:00;;;;;;;2.38;1.40;;;22.10;46.40;;;;;;5060503;28;20473;-53
2021/05/25 05:27:26;;;;;;;3.25;1.40;;;22.20;46.40;;;;;;5065341;28;20033;-56
2021/05/25 05:29:52;;;;;;;1.80;1.40;;;22.20;46.40;;;;;;5062606;28;20033;-55
2021/05/25 05:32:18;;;;;;;2.05;1.50;;;22.20;46.40;;;;;;5064867;28;20036;-53
2021/05/25 05:34:44;;;;;;;2.28;1.60;;;22.10;46.40;;;;;;5066546;28;20367;-53
2021/05/25 05:37:09;;;;;;;2.25;1.42;;;22.10;46.40;;;;;;5062653;28;20025;-56
2021/05/25 05:39:35;;;;;;;2.47;1.55;;;22.10;46.40;;;;;;5066242;28;20043;-55
2021/05/25 05:42:01;;;;;;;1.90;1.40;;;22.10;46.40;;;;;;5058053;28;20039;-57
2021/05/25 05:44:26;;;;;;;2.00;1.50;;;22.10;46.40;;;;;;5064573;28;20116;-54
2021/05/25 05:46:52;;;;;;;2.03;1.40;;;22.10;46.40;;;;;;5062705;28;20520;-60
2021/05/25 05:49:18;;;;;;;2.13;1.50;;;22.10;46.40;;;;;;5046522;28;20037;-55
2021/05/25 05:51:44;;;;;;;2.10;1.52;;;22.10;46.40;;;;;;5059626;28;20029;-52
2021/05/25 05:54:11;;;;;;;1.85;1.40;;;22.10;46.40;;;;;;5060547;28;20441;-51
2021/05/25 05:56:37;;;;;;;2.25;1.50;;;22.10;46.40;;;;;;5054057;28;20060;-55
2021/05/25 05:59:03;;;;;;;1.90;1.35;;;22.10;46.40;;;;;;5063539;28;20535;-56
2021/05/25 06:01:28;;;;;;;1.77;1.40;;;22.10;46.40;;;;;;5061089;28;20044;-57
2021/05/25 06:03:54;;;;;;;2.17;1.35;;;22.10;46.40;;;;;;5057407;28;20068;-57
2021/05/25 06:06:19;;;;;;;2.45;1.48;;;22.10;46.40;;;;;;5055089;28;20039;-54
2021/05/25 06:08:45;;;;;;;2.13;1.45;;;22.10;46.50;;;;;;5059466;28;20611;-57
2021/05/25 06:11:11;;;;;;;2.72;1.60;;;22.00;46.40;;;;;;5057945;28;20096;-54
2021/05/25 06:13:37;;;;;;;2.20;1.40;;;22.00;46.90;;;;;;5066449;28;20035;-57
2021/05/25 06:16:03;;;;;;;2.15;1.40;;;22.00;46.40;;;;;;5063801;28;20030;-58
2021/05/25 06:18:30;;;;;;;2.97;1.52;;;22.00;46.40;;;;;;5053870;28;20024;-55
2021/05/25 06:20:56;;;;;;;2.38;1.40;;;22.00;46.50;;;;;;5066799;28;20063;-54
2021/05/25 06:23:21;;;;;;;2.28;1.33;;;22.00;46.40;;;;;;5046929;28;20064;-56
2021/05/25 06:25:48;;;;;;;2.10;1.58;;;22.00;46.40;;;;;;5061626;28;20025;-49
2021/05/25 06:28:14;;;;;;;2.00;1.30;;;22.00;46.40;;;;;;5049492;28;20207;-56
2021/05/25 06:30:40;;;;;;;2.55;1.38;;;22.00;46.40;;;;;;5059873;28;20036;-53
2021/05/25 06:33:06;;;;;;;2.10;1.38;;;22.00;46.40;;;;;;5064956;28;20028;-54
2021/05/25 06:35:33;;;;;;;2.22;1.42;;;22.00;46.40;;;;;;5065456;28;20111;-49
2021/05/25 06:38:00;;;;;;;1.80;1.23;;;22.00;46.50;;;;;;5065115;28;20036;-54
2021/05/25 06:40:25;;;;;;;2.42;1.42;;;22.00;46.90;;;;;;5048937;28;20055;-49
2021/05/25 06:42:51;;;;;;;2.88;1.40;;;22.00;46.40;;;;;;5055444;28;20028;-54
2021/05/25 06:45:17;;;;;;;2.20;1.40;;;22.00;46.40;;;;;;5061143;28;20051;-59
2021/05/25 06:47:42;;;;;;;2.20;1.30;;;22.00;46.40;;;;;;5051718;28;20436;-53
2021/05/25 06:50:09;;;;;;;2.67;1.40;;;22.00;46.40;;;;;;5049719;28;20124;-54
2021/05/25 06:52:35;;;;;;;2.58;1.30;;;22.00;46.40;;;;;;5055818;28;20443;-54
2021/05/25 06:55:03;;;;;;;2.88;1.25;;;22.00;46.40;;;;;;5066048;28;20036;-53
2021/05/25 06:57:30;;;;;;;2.17;1.30;;;22.00;46.30;;;;;;5064401;28;20060;-55
2021/05/25 06:59:56;;;;;;;2.53;1.30;;;21.90;46.30;;;;;;5061664;28;20458;-59
2021/05/25 07:02:23;;;;;;;2.22;1.20;;;22.00;46.30;;;;;;5060631;28;20047;-54
2021/05/25 07:04:53;;;;;;;2.53;1.10;;;22.00;46.30;;;;;;5066949;28;20056;-58
2021/05/25 07:07:20;;;;;;;2.25;1.25;;;22.00;46.30;;;;;;5065836;28;20550;-54
2021/05/25 07:09:46;;;;;;;1.70;1.10;;;21.90;46.20;;;;;;5057466;28;20033;-58
2021/05/25 07:12:12;;;;;;;2.45;1.10;;;22.00;46.30;;;;;;5065179;28;20024;-53
2021/05/25 07:14:41;;;;;;;2.30;1.30;;;22.00;46.30;;;;;;5066453;28;20650;-50
2021/05/25 07:17:07;;;;;;;1.75;1.20;;;22.00;46.30;;;;;;5081387;28;20097;-61
2021/05/25 07:19:33;;;;;;;2.88;1.50;;;22.00;46.30;;;;;;5056930;28;20589;-57
2021/05/25 07:22:00;;;;;;;1.88;1.30;;;22.00;46.20;;;;;;5051565;28;20040;-53
2021/05/25 07:24:26;;;;;;;2.30;1.20;;;21.90;46.20;;;;;;5058417;28;20090;-57
2021/05/25 07:26:52;;;;;;;1.98;1.20;;;21.90;46.20;;;;;;5069481;28;20029;-57
2021/05/25 07:29:17;;;;;;;1.90;1.20;;;22.00;46.20;;;;;;5062694;28;20050;-53
2021/05/25 07:31:43;;;;;;;2.90;1.20;;;22.00;46.30;;;;;;5054973;28;20463;-58
2021/05/25 07:34:09;;;;;;;2.25;1.23;;;21.90;46.20;;;;;;5067415;28;20143;-54
2021/05/25 07:36:35;;;;;;;1.65;1.10;;;22.00;46.20;;;;;;5058206;28;20610;-50
2021/05/25 07:39:01;;;;;;;1.45;1.00;;;21.90;46.20;;;;;;5050685;28;20120;-50
2021/05/25 07:41:26;;;;;;;1.88;1.20;;;21.90;46.10;;;;;;5069237;28;20024;-56
2021/05/25 07:43:52;;;;;;;2.67;1.10;;;21.90;46.10;;;;;;5051016;28;20108;-58
2021/05/25 07:46:18;;;;;;;2.10;1.20;;;21.90;46.10;;;;;;5056619;28;20800;-60
2021/05/25 07:48:44;;;;;;;1.88;1.10;;;21.90;46.10;;;;;;5062147;28;20036;-50
2021/05/25 07:51:10;;;;;;;2.55;1.10;;;21.90;46.10;;;;;;5060571;28;20020;-55
2021/05/25 07:53:36;;;;;;;1.83;1.00;;;21.90;46.10;;;;;;5066937;28;20069;-51
2021/05/25 07:56:03;;;;;;;1.73;1.05;;;21.90;46.10;;;;;;5068536;28;20093;-53
2021/05/25 07:58:28;;;;;;;2.00;1.10;;;21.90;46.10;;;;;;5066852;28;20132;-54
2021/05/25 08:00:55;;;;;;;1.73;1.00;;;21.90;46.10;;;;;;5064998;28;20119;-61
2021/05/25 08:03:20;;;;;;;1.75;1.10;;;21.90;46.10;;;;;;5063148;28;20056;-50
2021/05/25 08:05:46;;;;;;;2.60;1.20;;;21.90;46.60;;;;;;5067567;28;20424;-57
2021/05/25 08:08:12;;;;;;;2.05;1.15;;;21.90;46.10;;;;;;5066773;28;20077;-52
2021/05/25 08:10:39;;;;;;;1.52;1.00;;;21.90;46.10;;;;;;5065891;28;20470;-59
2021/05/25 08:13:04;;;;;;;3.17;1.00;;;21.90;46.10;;;;;;5062431;28;20544;-56
2021/05/25 08:15:33;;;;;;;1.98;1.00;;;21.90;46.10;;;;;;5064137;28;20151;-56
2021/05/25 08:20:27;;;;;;;2.15;1.10;;;21.90;46.10;;;;;;5060499;28;20040;-58
2021/05/25 08:22:57;;;;;;;1.70;1.10;;;21.90;46.10;;;;;;5063512;28;20040;-60
2021/05/25 08:25:24;;;;;;;;;;;21.90;46.10;;;;;;5055043;28;20029;-53
2021/05/25 08:27:51;;;;;;;2.80;1.10;;;21.90;46.10;;;;;;5051240;28;19994;-52
2021/05/25 08:30:18;;;;;;;2.35;1.00;;;21.90;46.10;;;;;;5065262;28;20047;-56
2021/05/25 08:32:45;;;;;;;2.65;1.15;;;21.90;46.10;;;;;;5065849;28;20028;-57
2021/05/25 08:35:11;;;;;;;2.97;1.00;;;21.90;46.00;;;;;;5059612;28;20078;-56
2021/05/25 08:37:37;;;;;;;2.33;1.10;;;21.90;46.00;;;;;;5054678;28;20079;-59
2021/05/25 08:40:06;;;;;;;1.67;1.00;;;21.90;46.00;;;;;;5061521;28;20025;-55
2021/05/25 08:42:32;;;;;;;1.55;0.90;;;21.90;46.00;;;;;;5073127;28;20109;-56
2021/05/25 08:44:58;;;;;;;3.60;1.10;;;21.90;46.00;;;;;;5062207;28;20054;-59
2021/05/25 08:47:25;;;;;;;3.20;0.90;;;21.90;46.00;;;;;;5065768;28;20029;-56
2021/05/25 08:49:51;;;;;;;3.00;1.13;;;21.90;46.00;;;;;;5065941;28;20023;-50
2021/05/25 08:52:17;;;;;;;2.25;0.98;;;21.90;46.00;;;;;;5059903;28;20096;-56
2021/05/25 08:54:44;;;;;;;1.95;0.93;;;22.00;46.10;;;;;;5063068;28;20116;-55
2021/05/25 08:57:13;;;;;;;2.58;1.10;;;22.00;46.10;;;;;;5059948;28;20151;-60
2021/05/25 08:59:39;;;;;;;2.30;1.10;;;22.00;46.10;;;;;;5063185;28;20119;-59
2021/05/25 09:02:05;;;;;;;2.72;1.10;;;22.00;46.00;;;;;;5055443;28;20123;-59
2021/05/25 09:05:02;;;;;;;2.53;0.95;;;22.00;46.00;;;;;;5062763;28;20093;-53
2021/05/25 09:07:46;;;;;;;2.75;1.08;;;21.90;45.90;;;;;;5054502;28;20040;-56
2021/05/25 09:10:16;;;;;;;3.50;1.00;;;22.00;46.00;;;;;;5064793;28;20032;-55
2021/05/25 09:12:48;;;;;;;3.38;1.20;;;22.00;46.00;;;;;;5058855;28;20112;-59
2021/05/25 09:15:16;;;;;;;2.83;0.98;;;22.00;46.00;;;;;;5064792;28;20028;-57
2021/05/25 09:17:42;;;;;;;2.00;1.00;;;22.00;46.00;;;;;;5062319;28;20452;-54
2021/05/25 09:20:09;;;;;;;2.28;0.93;;;22.00;45.90;;;;;;5061162;28;20032;-55
2021/05/25 09:22:36;;;;;;;2.63;1.00;;;22.00;45.90;;;;;;5064173;28;20466;-53
2021/05/25 09:25:07;;;;;;;1.95;0.98;;;22.00;45.80;;;;;;5066022;28;20073;-53
2021/05/25 09:27:37;;;;;;;2.97;1.02;;;22.00;45.70;;;;;;5058227;28;20017;-58
2021/05/25 09:30:09;;;;;;;2.67;1.17;;;22.00;45.70;;;;;;5057539;28;20151;-58
2021/05/25 09:32:59;;;;;;;2.38;0.93;;;22.00;45.60;;;;;;5051139;28;20087;-51
2021/05/25 09:35:28;;;;;;;;;;;22.00;45.50;;;;;;5054977;28;20151;-51
2021/05/25 09:37:57;;;;;;;1.45;0.70;;;22.00;45.50;;;;;;5058270;28;20350;-62
2021/05/25 09:40:29;;;;;;;2.03;0.90;;;22.00;45.70;;;;;;5054287;28;20043;-57
2021/05/25 09:43:14;;;;;;;1.95;0.70;;;22.00;45.90;;;;;;5061598;28;20062;-55
2021/05/25 09:46:09;;;;;;;1.88;0.80;;;22.10;46.00;;;;;;5055719;28;20153;-57
2021/05/25 09:48:41;;;;;;;1.35;0.75;;;22.10;45.70;;;;;;5051651;28;20079;-52
2021/05/25 09:51:23;;;;;;;2.05;0.90;;;22.10;45.70;;;;;;5056840;28;20032;-58
2021/05/25 09:53:49;;;;;;;2.33;0.80;;;22.20;45.60;;;;;;5061360;28;20028;-57
2021/05/25 09:56:31;;;;;;;1.25;0.80;;;22.20;45.60;;;;;;5060877;28;20032;-55
2021/05/25 09:59:00;;;;;;;2.72;1.20;;;22.20;45.40;;;;;;5053479;28;20116;-55
2021/05/25 10:01:34;;;;;;;1.60;0.70;;;22.20;45.30;;;;;;5051594;28;20040;-58
2021/05/25 10:04:15;;;;;;;1.42;0.70;;;22.30;45.30;;;;;;5053131;28;20038;-56
2021/05/25 10:06:44;;;;;;;1.60;0.77;;;22.30;45.30;;;;;;5058732;28;20153;-56
2021/05/25 10:09:10;;;;;;;1.67;0.80;;;22.30;45.20;;;;;;5056330;28;20029;-56
2021/05/25 10:11:44;;;;;;;1.80;1.00;;;22.30;45.20;;;;;;5054621;28;20040;-53
2021/05/25 10:14:11;;;;;;;2.10;1.00;;;22.30;45.10;;;;;;5055863;28;20359;-55
2021/05/25 10:16:45;;;;;;;2.55;1.00;;;22.30;45.00;;;;;;5055980;28;20048;-57
2021/05/25 10:21:37;;;;;;;2.58;0.80;;;22.40;45.00;;;;;;5058753;28;20035;-61
2021/05/25 10:24:03;;;;;;;2.13;0.80;;;22.40;44.90;;;;;;5058389;28;20102;-56
2021/05/25 10:26:29;;;;;;;2.33;0.88;;;22.40;44.90;;;;;;5062888;28;20118;-55
2021/05/25 10:28:56;;;;;;;2.05;0.90;;;22.40;44.90;;;;;;5061525;28;20078;-56
2021/05/25 10:31:33;;;;;;;2.30;0.80;;;22.40;44.80;;;;;;5060146;28;20357;-60
2021/05/25 10:34:34;;;;;;;1.58;0.80;;;22.40;45.40;;;;;;5058169;28;20029;-56
2021/05/25 10:37:03;;;;;;;2.33;0.90;;;22.40;44.80;;;;;;5056088;28;20115;-54
2021/05/25 10:39:39;;;;;;;1.60;0.90;;;22.40;44.80;;;;;;5056885;28;20102;-54
2021/05/25 10:42:16;;;;;;;2.45;0.80;;;22.50;44.80;;;;;;5054886;28;20032;-55
2021/05/25 10:44:46;;;;;;;1.15;0.73;;;22.50;44.80;;;;;;5049564;28;20032;-53
2021/05/25 10:47:26;;;;;;;1.92;0.80;;;22.50;44.80;;;;;;5051894;28;20036;-54
2021/05/25 10:49:56;;;;;;;1.73;0.95;;;22.60;44.80;;;;;;5059021;28;20025;-55
2021/05/25 10:52:22;;;;;;;1.33;0.80;;;22.60;44.80;;;;;;5062773;28;20036;-59
2021/05/25 10:54:50;;;;;;;1.75;0.68;;;22.60;44.80;;;;;;5061843;28;20543;-58
2021/05/25 10:57:28;;;;;;;1.25;0.90;;;22.60;44.90;;;;;;5054413;28;20032;-58
2021/05/25 10:59:59;;;;;;;2.58;0.80;;;22.70;45.00;;;;;;5052645;28;20316;-54
2021/05/25 11:03:01;;;;;;;1.30;0.60;;;22.70;44.80;;;;;;5060403;28;20451;-57
2021/05/25 11:05:26;;;;;;;3.72;0.82;;;22.70;44.80;;;;;;5029796;28;20391;-61
2021/05/25 11:07:53;;;;;;;1.77;0.70;;;22.70;44.90;;;;;;5063521;28;20029;-58
2021/05/25 11:10:28;;;;;;;2.83;0.80;;;22.80;45.00;;;;;;5059802;28;20021;-57
2021/05/25 11:13:20;;;;;;;1.95;0.75;;;22.80;44.90;;;;;;5062730;28;20048;-58
2021/05/25 11:16:16;;;;;;;1.73;0.80;;;22.80;44.90;;;;;;5053524;28;20528;-61
2021/05/25 11:19:06;;;;;;;1.92;0.80;;;22.80;44.90;;;;;;5065028;28;20028;-55
2021/05/25 11:24:33;;;;;;;1.55;0.65;;;23.00;45.00;;;;;;5063410;28;20041;-58
2021/05/25 11:27:05;;;;;;;1.20;0.60;;;23.00;45.10;;;;;;5052115;28;20028;-57
2021/05/25 11:29:31;;;;;;;2.47;0.70;;;23.00;45.10;;;;;;5052553;28;20037;-56
2021/05/25 11:32:03;;;;;;;1.98;0.80;;;23.00;45.30;;;;;;5062468;28;20412;-52
2021/05/25 11:34:29;;;;;;;5.00;1.35;;;23.00;45.20;;;;;;5062343;28;20541;-57
2021/05/25 11:37:00;;;;;;;2.67;0.80;;;23.10;45.10;;;;;;5066985;28;20029;-57
2021/05/25 11:39:28;;;;;;;1.73;0.80;;;23.00;45.00;;;;;;5056031;28;20078;-56
2021/05/25 11:41:54;;;;;;;2.30;0.82;;;23.00;45.00;;;;;;5053819;28;20902;-51
2021/05/25 11:44:22;;;;;;;2.55;0.90;;;23.00;44.90;;;;;;5050745;28;20121;-53
2021/05/25 11:46:52;;;;;;;1.55;0.77;;;23.10;45.00;;;;;;5051463;28;20037;-56
2021/05/25 11:49:19;;;;;;;1.70;0.63;;;23.10;45.00;;;;;;5063562;28;20036;-56
2021/05/25 11:51:45;;;;;;;3.05;0.82;;;23.10;45.00;;;;;;5056261;28;20040;-51
2021/05/25 11:54:17;;;;;;;2.25;0.85;;;23.10;45.00;;;;;;5045756;28;20028;-56
2021/05/25 11:56:45;;;;;;;3.15;0.80;;;23.10;44.90;;;;;;5054675;28;20037;-59
2021/05/25 11:59:16;;;;;;;2.33;0.70;;;23.10;44.90;;;;;;5058283;28;20101;-57
2021/05/25 12:01:52;;;;;;;1.50;0.70;;;23.10;44.90;;;;;;5050220;28;20348;-61
2021/05/25 12:04:22;;;;;;;2.78;0.80;;;23.10;44.90;;;;;;5058957;28;20502;-55
2021/05/25 12:06:53;;;;;;;2.00;0.98;;;23.10;44.90;;;;;;5058814;28;20046;-55
2021/05/25 12:09:24;;;;;;;1.45;0.75;;;23.20;44.90;;;;;;5050401;28;20086;-52
2021/05/25 12:11:57;;;;;;;1.30;0.70;;;23.20;44.80;;;;;;5056887;28;20033;-54
2021/05/25 12:14:28;;;;;;;1.60;0.80;;;23.20;44.80;;;;;;5056140;28;20032;-57
2021/05/25 12:16:58;;;;;;;1.63;0.70;;;23.20;44.70;;;;;;5058695;28;20123;-56
2021/05/25 12:19:25;;;;;;;1.88;0.90;;;23.20;44.70;;;;;;5053862;28;20612;-54
2021/05/25 12:22:00;;;;;;;2.20;1.00;;;23.20;44.60;;;;;;5060222;28;20036;-53
2021/05/25 12:24:28;;;;;;;2.03;0.70;;;23.20;44.50;;;;;;5053742;28;20028;-55
2021/05/25 12:26:55;;;;;;;2.88;0.80;;;23.20;44.50;;;;;;5052516;28;20079;-54
2021/05/25 12:29:21;;;;;;;2.60;0.80;;;23.20;44.50;;;;;;5056188;28;20039;-57
2021/05/25 12:31:47;;;;;;;2.85;0.70;;;23.20;44.40;;;;;;5056366;28;20037;-54
2021/05/25 12:34:17;;;;;;;4.00;1.05;;;23.20;44.30;;;;;;5052822;28;20027;-53
2021/05/25 12:36:57;;;;;;;2.15;0.88;;;23.20;44.30;;;;;;5056952;28;20044;-59
2021/05/25 12:39:37;;;;;;;1.67;0.70;;;23.30;44.30;;;;;;5059458;28;20029;-55
2021/05/25 12:42:18;;;;;;;1.60;0.80;;;23.20;44.20;;;;;;5059594;28;20059;-57
2021/05/25 12:44:44;;;;;;;3.67;0.88;;;23.30;44.30;;;;;;5048450;28;20122;-57
2021/05/25 12:47:14;;;;;;;1.65;0.75;;;23.30;44.20;;;;;;5058776;28;20433;-55
2021/05/25 12:49:45;;;;;;;1.10;0.70;;;23.30;44.20;;;;;;5062195;28;20403;-59
2021/05/25 12:52:22;;;;;;;1.85;0.70;;;23.30;44.20;;;;;;5054830;28;20763;-56
2021/05/25 12:54:51;;;;;;;1.38;0.77;;;23.30;44.20;;;;;;5057598;28;20356;-58
2021/05/25 12:57:17;;;;;;;1.40;0.77;;;23.30;44.10;;;;;;5056718;28;22091;-46
2021/05/25 12:59:42;;;;;;;1.88;0.90;;;23.30;44.10;;;;;;5063440;28;20051;-58
2021/05/25 13:02:08;;;;;;;1.88;0.70;;;23.30;44.10;;;;;;5049991;28;20641;-56
2021/05/25 13:04:33;;;;;;;2.25;0.80;;;23.30;44.00;;;;;;5058218;28;20105;-56